Time;durP1;ratioP1;P1;durP2;ratioP2;P2;SDS_P1;SDS_P2;PMS_P1;PMS_P2;Temp;Humidity;BMP_temperature;BMP_pressure;BME280_temperature;BME280_humidity;BME280_pressure;Samples;Min_cycle;Max_cycle;Signal;HPM_P1;HPM_P2
2024/01/21 00:00:35;;;;;;;;;63.67;48.67;;;;;0.77;63.42;102037.63;5074574;27;45356;-64
2024/01/21 00:03:00;;;;;;;;;64.00;46.00;;;;;0.71;64.03;102022.63;5077710;27;45566;-64
2024/01/21 00:05:26;;;;;;;;;60.00;44.33;;;;;0.65;63.77;102000.75;5075763;27;45547;-67
2024/01/21 00:07:52;;;;;;;;;59.00;44.00;;;;;0.73;63.42;102003.00;5064539;27;46389;-63
2024/01/21 00:10:17;;;;;;;;;59.67;45.33;;;;;0.74;63.63;101981.59;5061853;28;46174;-66
2024/01/21 00:12:43;;;;;;;;;59.33;45.00;;;;;0.84;63.40;101990.78;5071399;28;45546;-65
2024/01/21 00:15:09;;;;;;;;;61.33;44.67;;;;;0.83;63.36;101987.31;5093729;27;45551;-66
2024/01/21 00:17:34;;;;;;;;;60.00;43.67;;;;;0.78;63.20;101960.34;5076058;28;45582;-66
2024/01/21 00:20:00;;;;;;;;;60.00;43.67;;;;;0.68;62.69;101949.34;5076609;28;45525;-64
2024/01/21 00:22:25;;;;;;;;;62.67;45.33;;;;;0.71;63.78;101952.13;5069305;27;45603;-66
2024/01/21 00:24:51;;;;;;;;;52.67;40.67;;;;;0.65;63.17;101952.66;5070137;28;45428;-67
2024/01/21 00:27:17;;;;;;;;;54.33;43.67;;;;;0.56;62.85;101947.81;5074653;27;45392;-64
2024/01/21 00:29:46;;;;;;;;;54.00;42.67;;;;;0.59;62.90;101953.16;5076854;27;46094;-67
2024/01/21 00:32:22;;;;;;;;;55.00;44.33;;;;;0.62;63.24;101955.03;5074146;27;45595;-66
2024/01/21 00:35:09;;;;;;;;;;;;;;;;;;;;;
2024/01/21 00:37:37;;;;;;;;;56.67;43.00;;;;;0.40;63.06;101958.88;5061288;28;64928;-66
2024/01/21 00:40:08;;;;;;;;;52.33;41.33;;;;;0.67;63.31;102007.78;5062844;28;47485;-64
2024/01/21 00:42:34;;;;;;;;;54.33;41.33;;;;;0.63;62.39;101987.75;5091902;27;45571;-65
2024/01/21 00:45:01;;;;;;;;;56.67;42.33;;;;;0.66;62.54;101979.31;5075357;27;45542;-65
2024/01/21 00:47:26;;;;;;;;;57.67;43.00;;;;;0.73;62.88;101984.06;5076646;28;45352;-65
2024/01/21 00:49:52;;;;;;;;;55.00;40.67;;;;;0.72;62.61;101966.81;5074286;27;45576;-64
2024/01/21 00:52:17;;;;;;;;;54.33;39.00;;;;;0.67;62.11;101965.66;5063641;27;45555;-65
2024/01/21 00:54:43;;;;;;;;;48.67;39.67;;;;;0.70;61.85;101952.94;5073481;28;45392;-65
2024/01/21 00:57:08;;;;;;;;;47.00;37.00;;;;;0.70;61.97;101965.81;5075001;28;45412;-66
2024/01/21 00:59:34;;;;;;;;;58.33;44.00;;;;;0.73;61.88;101966.88;5091372;27;47856;-67
2024/01/21 01:01:59;;;;;;;;;50.67;39.67;;;;;0.70;61.84;101963.25;5094433;27;45709;-65
2024/01/21 01:04:25;;;;;;;;;47.33;39.00;;;;;0.70;61.95;101978.72;5075174;27;45421;-66
2024/01/21 01:06:50;;;;;;;;;51.67;39.00;;;;;0.68;61.71;101964.84;5089691;27;45320;-64
2024/01/21 01:09:16;;;;;;;;;55.67;40.67;;;;;0.76;62.03;101979.06;5064239;28;46214;-64
2024/01/21 01:11:41;;;;;;;;;47.67;36.33;;;;;0.67;61.21;101957.91;5068276;27;45762;-69
2024/01/21 01:14:07;;;;;;;;;53.00;40.33;;;;;0.75;62.20;101973.03;5073032;27;45499;-66
2024/01/21 01:16:40;;;;;;;;;54.00;39.67;;;;;0.69;61.56;101980.41;5058796;27;45563;-66
2024/01/21 01:19:07;;;;;;;;;53.33;40.67;;;;;0.65;62.19;101973.28;5069221;27;45528;-66
2024/01/21 01:21:34;;;;;;;;;52.33;41.00;;;;;0.56;62.41;101976.16;5059888;27;45487;-64
2024/01/21 01:23:59;;;;;;;;;48.33;41.33;;;;;0.56;62.18;101963.28;5063506;27;45490;-66
2024/01/21 01:26:25;;;;;;;;;55.33;39.33;;;;;0.61;62.56;101981.59;5064073;27;45550;-64
2024/01/21 01:28:50;;;;;;;;;51.67;37.67;;;;;0.61;62.30;101968.72;5060875;27;47562;-64
2024/01/21 01:31:20;;;;;;;;;57.33;41.00;;;;;0.58;62.43;101971.09;5062963;28;45477;-64
2024/01/21 01:33:46;;;;;;;;;51.67;39.67;;;;;0.60;62.50;101964.38;5060568;27;45567;-66
2024/01/21 01:36:12;;;;;;;;;53.67;39.67;;;;;0.60;62.50;101966.94;5062781;27;45334;-65
2024/01/21 01:38:38;;;;;;;;;55.67;42.67;;;;;0.57;62.53;101971.88;5063179;27;46523;-65
2024/01/21 01:41:04;;;;;;;;;50.00;37.67;;;;;0.53;62.16;101969.94;5076770;27;45642;-65
2024/01/21 01:43:30;;;;;;;;;53.67;42.33;;;;;0.54;62.41;101967.44;5071061;28;45530;-65
2024/01/21 01:45:56;;;;;;;;;54.33;38.00;;;;;0.63;62.58;101974.84;5074183;28;45563;-65
2024/01/21 01:48:23;;;;;;;;;54.33;40.67;;;;;0.56;61.90;101970.13;5074484;28;46699;-66
2024/01/21 01:50:49;;;;;;;;;54.33;38.00;;;;;0.63;62.22;101980.91;5074532;28;45445;-67
2024/01/21 01:53:16;;;;;;;;;49.67;36.67;;;;;0.53;62.36;101963.09;5091246;27;45374;-65
2024/01/21 01:55:43;;;;;;;;;51.00;43.00;;;;;0.53;62.30;101964.78;5074621;28;45612;-65
2024/01/21 01:58:08;;;;;;;;;45.33;24.33;;;;;0.69;62.41;101989.81;5075898;27;45408;-64
2024/01/21 02:00:34;;;;;;;;;56.00;42.00;;;;;0.50;62.40;101960.34;5109859;27;46805;-65
2024/01/21 02:03:00;;;;;;;;;56.00;43.00;;;;;0.69;62.22;101989.81;5075865;28;45472;-64
2024/01/21 02:05:25;;;;;;;;;54.67;40.67;;;;;0.65;62.23;101978.44;5075762;28;45534;-62
2024/01/21 02:07:51;;;;;;;;;57.67;43.00;;;;;0.70;62.05;101984.75;5076088;28;45495;-65
2024/01/21 02:10:17;;;;;;;;;51.00;38.00;;;;;0.71;62.42;101991.69;5073888;28;45501;-65
2024/01/21 02:12:43;;;;;;;;;52.00;40.67;;;;;0.76;61.85;102007.44;5075790;27;45415;-65
2024/01/21 02:15:11;;;;;;;;;55.67;39.33;;;;;0.73;61.91;101978.91;5077122;27;45439;-65
2024/01/21 02:17:38;;;;;;;;;50.67;38.00;;;;;0.77;62.15;101992.06;5080651;27;46226;-65
2024/01/21 02:20:03;;;;;;;;;50.67;42.67;;;;;0.78;62.06;102000.69;5079211;27;45428;-63
2024/01/21 02:22:32;;;;;;;;;49.33;37.00;;;;;0.80;62.08;102002.56;5078161;28;45379;-65
2024/01/21 02:24:57;;;;;;;;;48.67;38.00;;;;;0.80;61.80;101997.41;5077438;28;45383;-65
2024/01/21 02:27:23;;;;;;;;;55.33;38.00;;;;;0.70;61.57;101989.91;5078587;27;45693;-65
2024/01/21 02:29:49;;;;;;;;;49.67;36.33;;;;;0.69;61.88;101993.31;5077577;27;45360;-65
2024/01/21 02:32:14;;;;;;;;;47.67;39.67;;;;;0.77;62.29;102002.38;5076133;27;45504;-67
2024/01/21 02:34:40;;;;;;;;;52.33;38.00;;;;;0.75;62.17;101990.19;5068363;28;45283;-65
2024/01/21 02:37:06;;;;;;;;;43.67;36.67;;;;;0.77;62.20;101991.19;5096712;27;47805;-64
2024/01/21 02:39:31;;;;;;;;;52.33;40.00;;;;;0.76;62.27;101985.16;5079258;27;45526;-64
2024/01/21 02:41:56;;;;;;;;;52.33;38.67;;;;;0.71;62.62;101998.53;5077528;28;45619;-65
2024/01/21 02:44:22;;;;;;;;;53.67;41.00;;;;;0.66;62.85;101987.94;5078921;27;45454;-66
2024/01/21 02:46:48;;;;;;;;;47.67;38.00;;;;;0.78;61.95;102014.50;5079623;28;45910;-66
2024/01/21 02:49:13;;;;;;;;;50.67;37.00;;;;;0.87;61.81;101997.81;5077416;27;46178;-66
2024/01/21 02:51:39;;;;;;;;;55.67;41.67;;;;;0.81;61.80;102001.78;5079077;27;45344;-65
2024/01/21 02:54:04;;;;;;;;;53.33;38.33;;;;;0.89;62.00;101996.22;5097470;27;45262;-66
2024/01/21 02:56:30;;;;;;;;;50.67;40.00;;;;;0.88;62.60;102002.16;5078441;27;45560;-65
2024/01/21 02:58:56;;;;;;;;;56.67;40.33;;;;;0.82;62.33;101982.94;5078649;27;45407;-64
2024/01/21 03:01:22;;;;;;;;;54.33;39.33;;;;;0.83;62.16;101992.47;5078670;27;45479;-66
2024/01/21 03:03:48;;;;;;;;;55.67;41.67;;;;;0.70;62.13;101977.03;5079381;27;45408;-66
2024/01/21 03:06:13;;;;;;;;;51.67;40.33;;;;;0.81;62.43;101993.19;5078449;27;45390;-66
2024/01/21 03:08:39;;;;;;;;;41.33;36.67;;;;;0.64;62.52;101956.00;5077997;28;45548;-66
2024/01/21 03:11:04;;;;;;;;;55.67;40.00;;;;;0.77;62.12;101971.44;5079385;28;45524;-66
2024/01/21 03:13:30;;;;;;;;;55.00;39.67;;;;;0.79;62.29;101963.81;5078525;27;45311;-64
2024/01/21 03:15:56;;;;;;;;;49.67;39.67;;;;;0.74;62.71;101960.06;5078282;27;45332;-66
2024/01/21 03:18:22;;;;;;;;;58.00;41.33;;;;;0.77;62.30;101961.13;5077935;28;45471;-68
2024/01/21 03:20:47;;;;;;;;;51.33;39.67;;;;;0.59;63.03;101923.91;5078111;28;45439;-65
2024/01/21 03:23:13;;;;;;;;;52.67;39.67;;;;;0.76;62.05;101958.44;5094254;27;45380;-66
2024/01/21 03:25:39;;;;;;;;;48.67;39.33;;;;;0.66;63.15;101933.78;5077844;27;45554;-67
2024/01/21 03:28:05;;;;;;;;;55.33;39.67;;;;;0.69;61.81;101935.66;5065904;27;45602;-68
2024/01/21 03:30:30;;;;;;;;;51.33;35.00;;;;;0.70;62.42;101952.94;5057308;28;45475;-66
2024/01/21 03:32:56;;;;;;;;;51.00;39.33;;;;;0.70;62.43;101956.38;5061936;28;45427;-66
2024/01/21 03:35:22;;;;;;;;;43.67;35.33;;;;;0.74;62.08;101966.09;5073429;28;45479;-68
2024/01/21 03:37:48;;;;;;;;;41.67;37.00;;;;;0.73;62.11;101955.69;5065010;28;45561;-66
2024/01/21 03:40:14;;;;;;;;;48.67;38.67;;;;;0.90;61.30;101974.78;5079534;27;45418;-65
2024/01/21 03:42:39;;;;;;;;;49.33;36.00;;;;;0.92;61.52;101980.91;5078010;27;45344;-66
2024/01/21 03:45:05;;;;;;;;;52.00;36.33;;;;;0.99;61.41;101983.06;5073017;28;45722;-66
2024/01/21 03:47:31;;;;;;;;;45.67;36.00;;;;;0.99;60.91;101972.75;5068284;28;45414;-66
2024/01/21 03:49:57;;;;;;;;;49.00;36.00;;;;;0.96;60.78;101972.56;5095912;27;45559;-68
2024/01/21 03:52:22;;;;;;;;;52.67;38.67;;;;;1.14;60.68;101993.41;5077861;27;45333;-69
2024/01/21 03:54:48;;;;;;;;;50.33;36.33;;;;;1.13;61.00;101984.78;5078523;28;45587;-65
2024/01/21 03:57:13;;;;;;;;;36.67;34.67;;;;;1.20;60.42;101984.38;5077423;28;45380;-66
2024/01/21 03:59:40;;;;;;;;;34.67;22.67;;;;;1.12;60.88;101977.88;5093193;27;45266;-66
2024/01/21 04:02:07;;;;;;;;;43.50;37.75;;;;;1.20;60.08;101988.63;5071890;27;45539;-65
2024/01/21 04:04:32;;;;;;;;;48.67;37.33;;;;;1.16;60.96;101978.94;5066839;28;45465;-67
2024/01/21 04:06:58;;;;;;;;;45.00;37.00;;;;;1.19;61.13;101981.72;5092691;27;45417;-65
2024/01/21 04:09:23;;;;;;;;;50.33;38.00;;;;;1.23;60.59;101984.56;5077405;28;45438;-67
2024/01/21 04:11:49;;;;;;;;;55.00;38.33;;;;;1.16;61.20;101960.84;5076696;27;45570;-66
2024/01/21 04:14:15;;;;;;;;;49.33;38.00;;;;;1.35;60.12;101983.50;5077363;28;46330;-65
2024/01/21 04:16:41;;;;;;;;;44.33;35.67;;;;;1.37;60.50;101969.88;5077316;27;45418;-66
2024/01/21 04:19:07;;;;;;;;;45.33;38.00;;;;;1.41;59.96;101961.50;5078345;27;45925;-66
2024/01/21 04:21:33;;;;;;;;;50.33;36.67;;;;;1.34;59.97;101945.59;5077751;27;45494;-66
2024/01/21 04:24:00;;;;;;;;;47.33;36.67;;;;;1.40;59.37;101946.84;5077001;28;45517;-65
2024/01/21 04:26:26;;;;;;;;;47.33;38.33;;;;;1.45;59.62;101954.84;5078583;27;45396;-65
2024/01/21 04:28:51;;;;;;;;;47.33;34.00;;;;;1.42;59.19;101955.53;5077158;28;45477;-66
2024/01/21 04:31:16;;;;;;;;;51.33;37.67;;;;;1.38;59.28;101948.44;5094396;27;45439;-66
2024/01/21 04:33:42;;;;;;;;;44.33;34.00;;;;;1.38;59.62;101937.22;5077194;27;45852;-66
2024/01/21 04:36:08;;;;;;;;;49.00;35.67;;;;;1.43;59.04;101949.59;5088627;27;46575;-64
2024/01/21 04:38:34;;;;;;;;;44.00;32.67;;;;;1.34;59.32;101938.72;5074632;28;45369;-66
2024/01/21 04:41:00;;;;;;;;;47.33;35.33;;;;;1.36;59.40;101944.00;5092448;27;45586;-68
2024/01/21 04:43:25;;;;;;;;;45.00;35.67;;;;;1.36;58.86;101923.34;5073230;27;46185;-66
2024/01/21 04:45:51;;;;;;;;;44.00;35.00;;;;;1.29;59.38;101896.28;5073621;28;45774;-65
2024/01/21 04:48:17;;;;;;;;;51.33;35.33;;;;;1.29;58.52;101873.03;5077090;28;45507;-64
2024/01/21 04:50:42;;;;;;;;;50.67;39.33;;;;;1.38;57.89;101889.06;5076774;27;45631;-65
2024/01/21 04:53:08;;;;;;;;;47.33;34.67;;;;;1.30;58.44;101881.66;5074952;28;45571;-65
2024/01/21 04:55:33;;;;;;;;;41.67;33.67;;;;;1.32;58.34;101905.88;5076848;28;45415;-66
2024/01/21 04:57:59;;;;;;;;;40.25;33.75;;;;;1.40;57.81;101921.03;5080685;27;45338;-65
2024/01/21 05:00:25;;;;;;;;;36.50;27.00;;;;;1.48;57.21;101918.88;5075638;28;45508;-65
2024/01/21 05:02:50;;;;;;;;;41.25;32.25;;;;;1.46;56.47;101894.66;5075204;27;45773;-66
2024/01/21 05:05:16;;;;;;;;;45.25;33.50;;;;;1.61;57.03;101902.38;5076613;27;45408;-65
2024/01/21 05:07:41;;;;;;;;;38.50;31.50;;;;;1.68;56.12;101896.75;5075207;27;45548;-64
2024/01/21 05:10:08;;;;;;;;;32.50;27.00;;;;;1.70;56.31;101892.56;5074979;28;45635;-65
2024/01/21 05:12:37;;;;;;;;;36.00;28.25;;;;;1.75;55.97;101883.38;5076244;27;45468;-66
2024/01/21 05:15:03;;;;;;;;;39.25;29.50;;;;;1.84;55.93;101883.03;5077248;27;45516;-65
2024/01/21 05:17:29;;;;;;;;;31.25;26.75;;;;;1.88;56.25;101883.28;5075108;28;45318;-65
2024/01/21 05:19:54;;;;;;;;;39.00;26.00;;;;;1.94;55.40;101890.47;5077066;27;45547;-65
2024/01/21 05:22:20;;;;;;;;;34.00;31.00;;;;;1.97;54.95;101889.75;5076108;28;45595;-65
2024/01/21 05:24:45;;;;;;;;;29.25;26.25;;;;;1.93;53.87;101865.44;5076335;28;45437;-65
2024/01/21 05:27:11;;;;;;;;;35.75;26.50;;;;;2.03;53.61;101870.31;5077570;28;45857;-67
2024/01/21 05:29:36;;;;;;;;;33.00;23.75;;;;;2.01;54.52;101871.03;5076611;28;45762;-65
2024/01/21 05:32:02;;;;;;;;;29.50;26.50;;;;;1.97;54.05;101859.66;5088033;27;46747;-66
2024/01/21 05:34:27;;;;;;;;;30.50;24.75;;;;;2.05;54.37;101876.47;5077303;27;45424;-67
2024/01/21 05:36:53;;;;;;;;;27.75;23.25;;;;;2.07;54.53;101882.59;5068203;27;45407;-66
2024/01/21 05:39:19;;;;;;;;;30.00;24.25;;;;;2.07;53.99;101863.63;5070359;28;45529;-66
2024/01/21 05:42:00;;;;;;;;;32.00;27.25;;;;;2.08;54.87;101858.53;5070419;27;46098;-66
2024/01/21 05:44:25;;;;;;;;;24.75;22.00;;;;;2.15;54.75;101849.41;5071430;28;45403;-66
2024/01/21 05:46:51;;;;;;;;;30.50;24.50;;;;;2.12;54.47;101837.22;5074838;28;45401;-66
2024/01/21 05:49:17;;;;;;;;;28.50;25.00;;;;;2.16;55.24;101848.63;5109365;27;45234;-66
2024/01/21 05:51:42;;;;;;;;;28.25;23.75;;;;;2.09;54.91;101859.44;5092188;27;45452;-65
2024/01/21 05:54:08;;;;;;;;;21.00;18.75;;;;;2.18;55.32;101877.13;5073959;28;45686;-66
2024/01/21 05:56:33;;;;;;;;;25.25;23.00;;;;;2.25;55.29;101886.97;5070222;28;45513;-65
2024/01/21 05:58:59;;;;;;;;;26.00;20.50;;;;;2.35;55.89;101899.63;5075662;27;45568;-65
2024/01/21 06:01:24;;;;;;;;;29.75;22.50;;;;;2.35;55.24;101868.59;5067056;28;46463;-66
2024/01/21 06:03:50;;;;;;;;;27.25;24.00;;;;;2.26;56.19;101876.75;5067996;28;45515;-66
2024/01/21 06:06:15;;;;;;;;;22.00;21.50;;;;;2.18;55.92;101875.41;5104839;27;45539;-65
2024/01/21 06:08:41;;;;;;;;;29.75;25.25;;;;;2.41;55.86;101892.19;5066913;28;46325;-65
2024/01/21 06:11:06;;;;;;;;;34.00;22.00;;;;;2.17;56.24;101832.28;5064442;27;46136;-66
2024/01/21 06:13:32;;;;;;;;;26.00;23.75;;;;;2.38;56.82;101878.22;5067630;28;45437;-65
2024/01/21 06:16:00;;;;;;;;;27.75;21.50;;;;;2.40;56.55;101880.06;5085799;27;45511;-65
2024/01/21 06:18:26;;;;;;;;;29.25;23.75;;;;;2.41;56.32;101886.13;5068370;28;45504;-66
2024/01/21 06:20:52;;;;;;;;;24.75;23.00;;;;;2.58;57.14;101900.84;5076503;27;45603;-65
2024/01/21 06:23:17;;;;;;;;;29.25;27.00;;;;;2.60;57.60;101893.16;5079914;28;45443;-66
2024/01/21 06:25:43;;;;;;;;;31.50;25.50;;;;;2.40;57.15;101859.38;5078588;27;45429;-66
2024/01/21 06:28:08;;;;;;;;;27.00;25.00;;;;;2.46;57.00;101871.75;5078940;27;45429;-65
2024/01/21 06:30:34;;;;;;;;;24.75;24.25;;;;;2.45;57.65;101882.91;5093973;27;47697;-66
2024/01/21 06:32:59;;;;;;;;;25.00;23.00;;;;;2.49;57.25;101895.16;5078573;28;45431;-66
2024/01/21 06:35:26;;;;;;;;;23.00;21.50;;;;;2.44;57.68;101869.06;5079057;27;45428;-66
2024/01/21 06:37:52;;;;;;;;;25.50;24.50;;;;;2.50;57.56;101891.78;5059906;28;45469;-65
2024/01/21 06:40:18;;;;;;;;;24.00;21.25;;;;;2.57;57.77;101903.34;5068255;28;46207;-66
2024/01/21 06:42:44;;;;;;;;;25.50;19.25;;;;;2.64;58.73;101901.16;5077382;27;45452;-65
2024/01/21 06:45:13;;;;;;;;;29.75;25.00;;;;;2.62;58.66;101871.75;5077992;28;45429;-67
2024/01/21 06:47:39;;;;;;;;;25.50;22.25;;;;;2.62;58.79;101902.78;5077774;28;45575;-65
2024/01/21 06:50:05;;;;;;;;;28.00;23.25;;;;;2.60;59.65;101916.44;5077536;27;47690;-65
2024/01/21 06:52:31;;;;;;;;;28.75;25.50;;;;;2.60;59.16;101913.84;5078740;27;45515;-65
2024/01/21 06:54:57;;;;;;;;;30.00;25.75;;;;;2.64;59.77;101932.22;5079885;27;45496;-65
2024/01/21 06:57:22;;;;;;;;;30.50;25.75;;;;;2.64;59.04;101927.03;5079002;27;45475;-67
2024/01/21 06:59:50;;;;;;;;;25.75;24.50;;;;;2.66;59.78;101932.31;5078236;28;45800;-65
2024/01/21 07:02:15;;;;;;;;;23.25;22.00;;;;;2.62;59.60;101920.88;5077451;27;45626;-66
2024/01/21 07:04:41;;;;;;;;;30.00;25.00;;;;;2.64;59.59;101908.03;5060275;28;45475;-66
2024/01/21 07:07:07;;;;;;;;;32.00;25.50;;;;;2.62;59.93;101907.06;5077337;28;45498;-65
2024/01/21 07:09:32;;;;;;;;;31.25;26.25;;;;;2.59;60.07;101900.03;5094317;27;46905;-65
2024/01/21 07:11:58;;;;;;;;;31.75;25.50;;;;;2.52;60.19;101895.34;5078649;27;45410;-65
2024/01/21 07:14:23;;;;;;;;;28.25;23.75;;;;;2.47;60.69;101908.03;5079144;27;45349;-67
2024/01/21 07:16:49;;;;;;;;;26.00;22.00;;;;;2.41;60.60;101910.28;5095589;27;45645;-66
2024/01/21 07:19:15;;;;;;;;;31.00;24.75;;;;;2.60;60.47;101947.47;5079571;27;45344;-66
2024/01/21 07:21:40;;;;;;;;;32.75;23.75;;;;;2.67;60.73;101959.94;5079538;27;45322;-65
2024/01/21 07:24:06;;;;;;;;;31.75;23.75;;;;;2.65;61.40;101949.50;5079673;28;45432;-67
2024/01/21 07:26:32;;;;;;;;;27.50;26.00;;;;;2.62;60.58;101927.75;5079221;28;45379;-67
2024/01/21 07:28:57;;;;;;;;;28.00;21.50;;;;;2.72;60.75;101941.25;5077528;27;45468;-67
2024/01/21 07:31:23;;;;;;;;;26.25;22.00;;;;;2.75;60.45;101945.69;5078172;28;45470;-67
2024/01/21 07:33:50;;;;;;;;;28.00;23.25;;;;;2.74;61.40;101938.75;5077794;28;45409;-65
2024/01/21 07:36:16;;;;;;;;;27.25;23.50;;;;;2.78;61.15;101945.88;5075216;28;45543;-65
2024/01/21 07:38:42;;;;;;;;;25.75;23.25;;;;;2.72;61.72;101949.00;5067484;28;46702;-67
2024/01/21 07:41:07;;;;;;;;;21.25;19.50;;;;;2.74;61.62;101946.53;5077516;27;45338;-66
2024/01/21 07:43:33;;;;;;;;;28.50;21.25;;;;;2.72;61.74;101930.91;5093715;27;45447;-67
2024/01/21 07:45:59;;;;;;;;;26.50;23.75;;;;;2.84;61.81;101941.00;5077814;28;45704;-68
2024/01/21 07:48:24;;;;;;;;;32.50;27.50;;;;;2.88;60.78;101952.44;5093287;27;46916;-66
2024/01/21 07:50:50;;;;;;;;;25.00;22.75;;;;;2.72;61.29;101942.97;5077818;27;45353;-67
2024/01/21 07:53:21;;;;;;;;;27.50;23.75;;;;;2.91;60.96;101988.81;5077229;28;45578;-66
2024/01/21 07:55:48;;;;;;;;;30.50;24.00;;;;;2.84;61.52;101971.19;5093584;27;45551;-66
2024/01/21 07:58:15;;;;;;;;;26.50;23.25;;;;;2.83;61.63;101969.41;5077138;27;45471;-66
2024/01/21 08:00:42;;;;;;;;;23.75;22.00;;;;;2.92;60.98;101988.03;5077436;27;45490;-68
2024/01/21 08:03:08;;;;;;;;;24.75;23.00;;;;;3.01;61.17;101983.31;5095774;27;45544;-66
2024/01/21 08:05:33;;;;;;;;;26.00;25.50;;;;;3.10;61.07;102006.22;5077656;27;45455;-65
2024/01/21 08:07:59;;;;;;;;;25.00;21.00;;;;;3.10;60.86;102003.63;5077140;28;45957;-66
2024/01/21 08:10:24;;;;;;;;;25.25;22.00;;;;;3.02;60.89;101973.88;5077245;27;45515;-66
2024/01/21 08:12:50;;;;;;;;;28.00;22.75;;;;;3.13;60.83;101996.00;5076792;27;45842;-66
2024/01/21 08:15:16;;;;;;;;;24.25;21.50;;;;;3.10;61.35;101983.78;5078098;28;45514;-66
2024/01/21 08:17:41;;;;;;;;;25.50;24.25;;;;;3.11;60.98;101987.28;5092729;27;46737;-67
2024/01/21 08:20:08;;;;;;;;;27.00;22.25;;;;;3.18;61.49;101991.97;5076857;27;45456;-67
2024/01/21 08:22:33;;;;;;;;;26.00;23.75;;;;;3.22;60.92;102008.53;5077601;27;45388;-68
2024/01/21 08:24:59;;;;;;;;;34.75;27.25;;;;;3.23;60.71;102000.88;5077221;28;45918;-66
2024/01/21 08:27:25;;;;;;;;;34.25;26.00;;;;;3.14;60.67;101958.97;5077072;27;45467;-65
2024/01/21 08:29:50;;;;;;;;;27.25;25.75;;;;;3.32;61.02;101982.31;5077262;28;45480;-65
2024/01/21 08:32:16;;;;;;;;;24.00;20.75;;;;;3.24;61.51;101999.16;5077221;28;45216;-67
2024/01/21 08:34:42;;;;;;;;;21.00;21.00;;;;;3.32;61.66;102018.56;5077164;27;45500;-66
2024/01/21 08:37:07;;;;;;;;;21.00;20.75;;;;;3.26;61.92;102007.91;5075394;28;47108;-66
2024/01/21 08:39:33;;;;;;;;;26.50;21.25;;;;;3.40;61.80;102043.19;5076845;28;45686;-66
2024/01/21 08:42:00;;;;;;;;;24.00;20.00;;;;;3.19;61.24;102010.16;5076998;27;45330;-64
2024/01/21 08:44:25;;;;;;;;;24.50;23.50;;;;;3.33;61.43;102031.59;5076900;28;45483;-64
2024/01/21 08:46:51;;;;;;;;;27.75;23.75;;;;;3.50;61.89;102071.31;5084971;27;45465;-64
2024/01/21 08:49:16;;;;;;;;;29.25;25.25;;;;;3.60;62.01;102083.06;5075996;28;45299;-66
2024/01/21 08:51:42;;;;;;;;;26.00;24.00;;;;;3.62;62.24;102084.03;5092494;27;45346;-65
2024/01/21 08:54:08;;;;;;;;;24.00;22.75;;;;;3.68;61.38;102086.03;5072536;27;45512;-65
2024/01/21 08:56:35;;;;;;;;;25.00;23.00;;;;;3.50;61.72;102049.72;5087367;27;45543;-66
2024/01/21 08:59:01;;;;;;;;;21.25;19.50;;;;;3.76;61.48;102087.34;5076234;27;45585;-64
2024/01/21 09:01:26;;;;;;;;;27.75;23.25;;;;;3.76;62.00;102075.25;5076263;27;45786;-66
2024/01/21 09:03:52;;;;;;;;;23.00;22.25;;;;;3.83;61.99;102092.03;5075265;28;45625;-66
2024/01/21 09:06:18;;;;;;;;;22.50;18.50;;;;;3.81;62.21;102093.63;5076036;28;46590;-65
2024/01/21 09:08:44;;;;;;;;;22.50;22.50;;;;;3.77;62.54;102089.09;5076052;28;45578;-66
2024/01/21 09:11:10;;;;;;;;;26.25;20.75;;;;;3.80;62.22;102084.09;5091717;27;45567;-65
2024/01/21 09:13:37;;;;;;;;;26.00;18.25;;;;;3.95;63.48;102079.69;5076429;27;45532;-66
2024/01/21 09:16:03;;;;;;;;;28.25;23.00;;;;;3.96;62.30;102077.97;5076126;27;46144;-64
2024/01/21 09:18:30;;;;;;;;;30.00;22.25;;;;;3.95;62.18;102060.66;5075700;27;45436;-66
2024/01/21 09:20:56;;;;;;;;;25.25;21.50;;;;;3.87;62.38;102060.28;5091636;27;46226;-65
2024/01/21 09:23:22;;;;;;;;;20.00;18.75;;;;;3.98;62.29;102082.41;5076468;27;45608;-65
2024/01/21 09:25:47;;;;;;;;;23.75;20.50;;;;;3.94;62.51;102084.78;5078180;27;46576;-64
2024/01/21 09:28:13;;;;;;;;;23.25;20.50;;;;;3.94;62.22;102067.53;5079422;27;45468;-63
2024/01/21 09:30:38;;;;;;;;;27.00;19.25;;;;;3.91;61.55;102075.16;5095471;27;45393;-64
2024/01/21 09:33:04;;;;;;;;;24.50;21.50;;;;;3.98;62.12;102085.00;5080137;28;45435;-65
2024/01/21 09:35:29;;;;;;;;;25.50;20.50;;;;;3.88;62.00;102066.34;5079258;27;45623;-65
2024/01/21 09:37:55;;;;;;;;;28.50;22.25;;;;;3.85;62.16;102064.47;5065006;27;45385;-65
2024/01/21 09:40:21;;;;;;;;;28.00;22.25;;;;;4.00;62.47;102079.91;5078076;28;45295;-64
2024/01/21 09:42:47;;;;;;;;;26.00;22.25;;;;;4.13;62.07;102073.63;5079935;27;45527;-66
2024/01/21 09:45:12;;;;;;;;;24.25;20.75;;;;;4.05;61.89;102039.53;5095442;27;48092;-65
2024/01/21 09:47:38;;;;;;;;;24.25;22.75;;;;;4.16;61.21;102053.94;5080080;27;45299;-64
2024/01/21 09:50:05;;;;;;;;;22.00;22.00;;;;;4.24;61.50;102067.28;5095324;27;45428;-65
2024/01/21 09:52:30;;;;;;;;;23.00;21.75;;;;;4.21;62.07;102061.94;5079781;27;45485;-65
2024/01/21 09:54:56;;;;;;;;;26.25;22.50;;;;;4.28;61.82;102057.94;5102667;27;47903;-64
2024/01/21 09:57:21;;;;;;;;;23.75;19.75;;;;;4.37;61.50;102077.44;5073655;27;45971;-65
2024/01/21 09:59:48;;;;;;;;;25.50;21.25;;;;;4.38;61.51;102086.09;5063921;27;45662;-66
2024/01/21 10:02:17;;;;;;;;;21.25;21.25;;;;;4.57;61.05;102111.25;5086882;27;45477;-65
2024/01/21 10:04:46;;;;;;;;;19.50;16.50;;;;;4.50;61.06;102097.06;5086666;27;46953;-65
2024/01/21 10:07:12;;;;;;;;;24.50;18.75;;;;;4.46;61.11;102097.72;5072046;28;45444;-64
2024/01/21 10:09:39;;;;;;;;;24.00;21.75;;;;;4.43;61.69;102092.41;5052888;28;45541;-66
2024/01/21 10:12:06;;;;;;;;;27.50;23.00;;;;;4.47;61.57;102108.19;5080224;28;45584;-65
2024/01/21 10:14:31;;;;;;;;;25.00;21.50;;;;;4.44;61.53;102117.56;5076914;27;47866;-65
2024/01/21 10:16:58;;;;;;;;;22.00;19.50;;;;;4.36;61.81;102106.78;5071272;27;45423;-67
2024/01/21 10:19:33;;;;;;;;;23.50;21.25;;;;;4.38;61.61;102086.09;5092005;27;45531;-65
2024/01/21 10:22:13;;;;;;;;;30.25;23.50;;;;;4.51;62.32;102106.66;5068164;28;45658;-65
2024/01/21 10:24:46;;;;;;;;;23.75;19.25;;;;;4.59;62.29;102115.69;5077121;28;47135;-65
2024/01/21 10:27:13;;;;;;;;;21.75;19.50;;;;;4.60;61.51;102104.50;5077748;27;45334;-66
2024/01/21 10:29:43;;;;;;;;;23.00;21.00;;;;;4.57;62.46;102101.75;5077838;28;45456;-65
2024/01/21 10:32:15;;;;;;;;;22.25;18.25;;;;;4.51;61.91;102087.56;5078992;27;46811;-66
2024/01/21 10:34:44;;;;;;;;;24.00;21.50;;;;;4.53;62.64;102096.31;5078452;27;46198;-65
2024/01/21 10:37:13;;;;;;;;;30.25;27.25;;;;;4.56;64.13;102094.78;5065867;28;45571;-65
2024/01/21 10:39:43;;;;;;;;;29.00;25.50;;;;;4.63;63.10;102081.28;5076784;28;45397;-65
2024/01/21 10:42:09;;;;;;;;;29.00;24.25;;;;;4.62;62.64;102070.81;5080638;28;45472;-66
2024/01/21 10:44:36;;;;;;;;;23.25;17.50;;;;;4.64;63.22;102074.38;5078587;27;46270;-66
2024/01/21 10:47:04;;;;;;;;;24.50;24.00;;;;;4.65;62.97;102070.97;5080199;27;45401;-68
2024/01/21 10:49:31;;;;;;;;;32.00;26.25;;;;;4.52;63.23;102034.88;5080089;27;45444;-66
2024/01/21 10:51:57;;;;;;;;;28.00;24.00;;;;;4.56;63.47;102045.50;5075019;27;45500;-65
2024/01/21 10:54:25;;;;;;;;;25.00;22.75;;;;;4.62;63.61;102045.75;5063025;28;45524;-66
2024/01/21 10:56:51;;;;;;;;;23.75;22.50;;;;;4.54;64.33;102026.34;5073936;28;45350;-66
2024/01/21 10:59:17;;;;;;;;;25.00;24.50;;;;;4.61;63.95;102028.41;5078589;28;45465;-66
2024/01/21 11:01:43;;;;;;;;;25.00;24.00;;;;;4.63;64.75;102024.19;5095412;27;45511;-66
2024/01/21 11:04:13;;;;;;;;;21.75;21.50;;;;;4.74;64.84;102047.16;5095318;27;48043;-65
2024/01/21 11:06:46;;;;;;;;;27.00;22.50;;;;;4.80;65.02;102050.94;5075159;27;45312;-65
2024/01/21 11:09:21;;;;;;;;;29.75;22.75;;;;;4.85;64.75;102052.03;5094597;27;45599;-67
2024/01/21 11:11:49;;;;;;;;;24.25;23.00;;;;;4.92;64.65;102044.53;5078306;27;45432;-66
2024/01/21 11:14:38;;;;;;;;;24.50;24.00;;;;;4.89;65.16;102046.16;5078422;27;45330;-65